Unicom:                    122.8

AWOS:                  118.275

Elevation           1458’ MSL

TPA:                   2500’ MSL

06/24:         5003’ L   75’ W

PAPI:       06/Left     24/Left

(Operate lights on unicom freq.)

Traffic Pattern: Left

Beacon: Sunset to Sunrise

Windsock: yes, lighted

Segmented Circle: No

 

Cleveland Center: 126.72/291.65

FSS: Altoona

[Source: ADDS]
METAR
KFKL 091129Z AUTO 29015G19KT 10SM OVC013 08/06 A2937 RMK AO2 =
KFKL 090850Z 0909/1006 23007KT P6SM VCSH SCT250 FM091100 26010KT P6SM VCSH OVC015 FM091600 29015G26KT P6SM BKN035 FM092100 27015G22KT 6SM -SHRA OVC050 FM100000 28011G15KT 5SM -SHRASN BKN045
TAF
KFKL 090850Z 0909/1006 23007KT P6SM VCSH SCT250 FM091100 26010KT P6SM VCSH OVC015 FM091600 29015G26KT P6SM BKN035 FM092100 27015G22KT 6SM -SHRA OVC050 FM100000 28011G15KT 5SM -SHRASN BKN045 =
[Source: ADDS]
METAR
KDUJ 091053Z AUTO 24015G19KT 10SM BKN026 OVC035 11/06 A2933 RMK AO2 SLP928 T01060061 =
KDUJ 090850Z 0909/1006 18007KT P6SM OVC050 FM091100 25012KT P6SM VCSH OVC015 FM091700 29019G30KT P6SM VCSH BKN035 FM092300 28013G22KT 5SM -SHRASN BKN050
TAF
KDUJ 090850Z 0909/1006 18007KT P6SM OVC050 FM091100 25012KT P6SM VCSH OVC015 FM091700 29019G30KT P6SM VCSH BKN035 FM092300 28013G22KT 5SM -SHRASN BKN050 =

Hangars

Hangars – A/B   $157/$173 a month.   Gravel floor/Concrete

Hangar C - Commercial hangar, concrete floor, heated. Call for pricing 814-226-9993.

Pay hangar rental year in full and receive discounted price.

Tie Downs Available.